createdAt,value
2023-05-06T00:03:43.303Z,12.18
2023-05-06T00:08:47.028Z,12.14
2023-05-06T00:13:51.411Z,12.13
2023-05-06T00:18:54.461Z,12.09
2023-05-06T00:23:57.425Z,12.02
2023-05-06T00:29:01.891Z,11.98
2023-05-06T00:34:04.934Z,11.96
2023-05-06T00:39:07.946Z,11.88
2023-05-06T00:44:12.333Z,11.80
2023-05-06T00:49:15.448Z,11.72
2023-05-06T00:54:18.779Z,11.80
2023-05-06T00:59:23.710Z,11.82
2023-05-06T01:04:27.042Z,11.71
2023-05-06T01:09:39.848Z,11.71
2023-05-06T01:14:51.135Z,11.63
2023-05-06T01:19:59.505Z,11.56
2023-05-06T01:25:03.874Z,11.49
2023-05-06T01:30:08.314Z,11.47
2023-05-06T01:35:22.239Z,11.41
2023-05-06T01:40:30.256Z,11.34
2023-05-06T01:45:36.473Z,11.29
2023-05-06T01:50:40.196Z,11.24
2023-05-06T01:55:44.575Z,11.18
2023-05-06T02:00:47.897Z,11.13
2023-05-06T02:05:51.400Z,11.06
2023-05-06T02:10:55.930Z,11.12
2023-05-06T02:15:59.506Z,11.07
2023-05-06T02:21:03.213Z,10.94
2023-05-06T02:26:07.638Z,11.07
2023-05-06T02:31:14.770Z,11.03
2023-05-06T02:36:17.766Z,10.94
2023-05-06T02:41:22.104Z,10.97
2023-05-06T02:46:25.474Z,10.94
2023-05-06T02:51:28.453Z,10.90
2023-05-06T02:56:32.772Z,10.87
2023-05-06T03:01:35.860Z,10.81
2023-05-06T03:06:39.088Z,10.80
2023-05-06T03:11:43.496Z,10.82
2023-05-06T03:16:46.605Z,10.81
2023-05-06T03:21:50.840Z,10.77
2023-05-06T03:26:58.622Z,10.72
2023-05-06T03:32:04.747Z,10.70
2023-05-06T03:37:13.276Z,10.68
2023-05-06T03:42:24.570Z,10.63
2023-05-06T03:47:28.037Z,10.64
2023-05-06T03:52:31.640Z,10.62
2023-05-06T03:57:37.529Z,10.59
2023-05-06T04:02:42.799Z,10.62
2023-05-06T04:07:49.669Z,10.64
2023-05-06T04:12:54.330Z,10.75
2023-05-06T04:18:02.586Z,10.90
2023-05-06T04:23:06.126Z,11.06
2023-05-06T04:28:12.848Z,11.23
2023-05-06T04:33:16.714Z,11.46
2023-05-06T04:38:21.725Z,11.60
2023-05-06T04:43:28.262Z,11.69
2023-05-06T04:48:40.361Z,11.80
2023-05-06T04:53:44.459Z,11.93
2023-05-06T04:58:48.822Z,12.06
2023-05-06T05:03:53.883Z,12.19
2023-05-06T05:08:58.709Z,12.35
2023-05-06T05:14:04.239Z,12.47
2023-05-06T05:19:09.057Z,12.50
2023-05-06T05:24:12.983Z,12.60
2023-05-06T05:29:18.324Z,12.69
2023-05-06T05:34:23.206Z,12.83
2023-05-06T05:39:27.664Z,13.04
2023-05-06T05:44:33.510Z,13.29
2023-05-06T05:49:37.138Z,13.42
2023-05-06T05:54:40.861Z,13.61
2023-05-06T05:59:45.485Z,13.74
2023-05-06T06:04:48.786Z,13.94
2023-05-06T06:09:51.887Z,14.10
2023-05-06T06:14:56.473Z,14.39
2023-05-06T06:20:02.279Z,14.38
2023-05-06T06:25:05.727Z,14.46
2023-05-06T06:30:11.365Z,14.75
2023-05-06T06:35:16.031Z,15.26
2023-05-06T06:40:19.211Z,15.66
2023-05-06T06:45:24.468Z,16.01
2023-05-06T06:50:27.960Z,16.40
2023-05-06T06:55:31.047Z,16.58
2023-05-06T07:00:35.702Z,16.62
2023-05-06T07:05:38.693Z,16.88
2023-05-06T07:10:41.743Z,16.80
2023-05-06T07:15:46.349Z,16.80
2023-05-06T07:20:51.742Z,16.82
2023-05-06T07:25:54.841Z,16.69
2023-05-06T07:30:59.222Z,16.78
2023-05-06T07:36:02.431Z,17.15
2023-05-06T07:41:06.278Z,17.62
2023-05-06T07:46:10.901Z,18.30
2023-05-06T07:51:14.352Z,18.71
2023-05-06T07:56:17.433Z,19.14
2023-05-06T08:01:22.167Z,19.40
2023-05-06T08:06:25.464Z,19.90
2023-05-06T08:11:29.125Z,20.39
2023-05-06T08:16:33.940Z,20.69
2023-05-06T08:21:37.112Z,20.82
2023-05-06T08:26:40.404Z,20.94
2023-05-06T08:31:45.122Z,21.08
2023-05-06T08:36:48.576Z,21.15
2023-05-06T08:41:53.855Z,21.16
2023-05-06T08:46:58.770Z,21.01
2023-05-06T08:52:06.104Z,20.93
2023-05-06T08:57:13.687Z,21.06
2023-05-06T09:02:18.498Z,21.43
2023-05-06T09:07:22.534Z,21.74
2023-05-06T09:12:25.957Z,21.90
2023-05-06T09:17:32.830Z,22.04
2023-05-06T09:22:39.912Z,22.11
2023-05-06T09:27:43.269Z,22.25
2023-05-06T09:32:49.940Z,22.49
2023-05-06T09:37:53.853Z,22.85
2023-05-06T09:42:58.184Z,22.93
2023-05-06T09:48:03.404Z,23.04
2023-05-06T09:53:07.799Z,23.26
2023-05-06T09:58:13.389Z,23.79
2023-05-06T10:03:19.990Z,24.04
2023-05-06T10:08:24.920Z,24.39
2023-05-06T10:13:28.314Z,24.59
2023-05-06T10:18:36.526Z,24.85
2023-05-06T10:23:45.356Z,25.04
2023-05-06T10:28:54.833Z,25.07
2023-05-06T10:34:04.167Z,25.19
2023-05-06T10:39:13.644Z,25.13
2023-05-06T10:44:19.737Z,25.42
2023-05-06T10:49:24.859Z,25.74
2023-05-06T10:54:30.421Z,25.88
2023-05-06T10:59:33.570Z,25.94
2023-05-06T11:04:38.089Z,25.77
2023-05-06T11:09:59.820Z,25.69
2023-05-06T11:15:21.151Z,25.76
2023-05-06T11:20:27.356Z,25.93
2023-05-06T11:25:47.020Z,26.13
2023-05-06T11:30:56.610Z,26.52
2023-05-06T11:36:01.572Z,26.44
2023-05-06T11:41:05.108Z,26.25
2023-05-06T11:46:08.387Z,26.27
2023-05-06T11:51:12.930Z,26.22
2023-05-06T11:56:15.981Z,26.02
2023-05-06T12:01:18.997Z,25.93
2023-05-06T12:06:33.880Z,25.99
2023-05-06T12:11:38.057Z,26.20
2023-05-06T12:16:42.305Z,26.43
2023-05-06T12:21:47.456Z,26.43
2023-05-06T12:26:52.021Z,26.42
2023-05-06T12:32:09.375Z,26.61
2023-05-06T12:37:25.565Z,26.63
2023-05-06T12:42:29.216Z,26.87
2023-05-06T12:47:32.212Z,27.30
2023-05-06T12:52:45.171Z,27.31
2023-05-06T12:57:49.649Z,27.34
2023-05-06T13:02:52.672Z,27.37
2023-05-06T13:07:57.090Z,27.09
2023-05-06T13:13:00.171Z,26.95
2023-05-06T13:18:03.464Z,26.88
2023-05-06T13:23:08.017Z,27.02
2023-05-06T13:28:11.554Z,26.90
2023-05-06T13:33:15.052Z,27.13
2023-05-06T13:38:19.964Z,27.07
2023-05-06T13:43:24.911Z,27.23
2023-05-06T13:48:28.284Z,27.16
2023-05-06T13:53:33.272Z,27.09
2023-05-06T13:58:36.565Z,27.06
2023-05-06T14:03:39.603Z,26.89
2023-05-06T14:08:44.494Z,26.61
2023-05-06T14:13:47.620Z,26.62
2023-05-06T14:18:53.796Z,26.68
2023-05-06T14:23:58.754Z,27.04
2023-05-06T14:29:02.118Z,27.00
2023-05-06T14:34:05.608Z,26.93
2023-05-06T14:39:10.156Z,27.11
2023-05-06T14:44:13.262Z,27.07
2023-05-06T14:49:16.536Z,26.95
2023-05-06T14:54:21.190Z,26.83
2023-05-06T14:59:24.229Z,26.73
2023-05-06T15:04:27.452Z,26.83
2023-05-06T15:09:32.011Z,26.76
2023-05-06T15:14:35.094Z,26.75
2023-05-06T15:19:38.326Z,26.56
2023-05-06T15:24:42.971Z,26.44
2023-05-06T15:29:46.718Z,26.21
2023-05-06T15:34:51.179Z,25.92
2023-05-06T15:39:56.001Z,25.94
2023-05-06T15:44:59.612Z,25.86
2023-05-06T15:50:06.832Z,25.84
2023-05-06T15:55:17.061Z,25.72
2023-05-06T16:00:20.682Z,25.61
2023-05-06T16:05:24.203Z,25.34
2023-05-06T16:10:28.965Z,25.22
2023-05-06T16:15:32.353Z,25.04
2023-05-06T16:20:35.748Z,24.90
2023-05-06T16:25:40.944Z,23.61
2023-05-06T16:30:44.943Z,22.75
2023-05-06T16:35:48.705Z,21.83
2023-05-06T16:40:55.301Z,20.63
2023-05-06T16:45:58.620Z,19.75
2023-05-06T16:51:01.633Z,19.34
2023-05-06T16:56:06.622Z,18.91
2023-05-06T17:01:09.810Z,18.71
2023-05-06T17:06:13.052Z,18.50
2023-05-06T17:11:18.006Z,18.35
2023-05-06T17:16:22.757Z,18.01
2023-05-06T17:21:25.796Z,17.99
2023-05-06T17:26:33.938Z,17.66
2023-05-06T17:31:37.193Z,17.74
2023-05-06T17:36:41.007Z,17.76
2023-05-06T17:41:45.610Z,17.80
2023-05-06T17:46:48.669Z,17.52
2023-05-06T17:51:52.047Z,17.33
2023-05-06T17:56:56.653Z,17.31
2023-05-06T18:02:00.392Z,17.41
2023-05-06T18:07:03.966Z,17.57
2023-05-06T18:12:09.124Z,17.65
2023-05-06T18:17:12.795Z,17.73
2023-05-06T18:22:15.892Z,17.85
2023-05-06T18:27:20.904Z,17.85
2023-05-06T18:32:24.304Z,17.70
2023-05-06T18:37:29.191Z,17.60
2023-05-06T18:42:35.298Z,17.46
2023-05-06T18:47:40.300Z,17.30
2023-05-06T18:52:43.442Z,17.01
2023-05-06T18:57:48.033Z,16.88
2023-05-06T19:02:51.586Z,16.71
2023-05-06T19:07:54.793Z,16.56
2023-05-06T19:12:59.176Z,16.45
2023-05-06T19:18:03.946Z,16.33
2023-05-06T19:23:07.228Z,16.43
2023-05-06T19:28:11.939Z,16.52
2023-05-06T19:33:15.360Z,16.62
2023-05-06T19:38:19.830Z,16.63
2023-05-06T19:43:24.887Z,16.72
2023-05-06T19:48:28.001Z,16.80
2023-05-06T19:53:31.029Z,16.82
2023-05-06T19:58:35.632Z,16.76
2023-05-06T20:03:39.051Z,16.59
2023-05-06T20:08:42.316Z,16.47
2023-05-06T20:13:49.899Z,16.36
2023-05-06T20:18:54.216Z,16.29
2023-05-06T20:23:57.225Z,16.26
2023-05-06T20:29:02.468Z,16.36
2023-05-06T20:34:05.509Z,16.39
2023-05-06T20:39:09.994Z,16.34
2023-05-06T20:44:14.589Z,16.47
2023-05-06T20:49:17.825Z,16.47
2023-05-06T20:54:20.799Z,16.45
2023-05-06T20:59:28.586Z,16.46
2023-05-06T21:04:31.730Z,16.39
2023-05-06T21:09:34.869Z,16.37
2023-05-06T21:14:39.724Z,16.29
2023-05-06T21:19:42.807Z,16.17
2023-05-06T21:24:45.859Z,16.07
2023-05-06T21:29:51.611Z,16.09
2023-05-06T21:34:54.733Z,15.94
2023-05-06T21:39:57.737Z,15.83
2023-05-06T21:45:02.254Z,15.74
2023-05-06T21:50:06.279Z,15.71
2023-05-06T21:55:09.968Z,15.58
2023-05-06T22:00:15.985Z,15.41
2023-05-06T22:05:19.202Z,15.24
2023-05-06T22:10:22.301Z,15.15
2023-05-06T22:15:26.680Z,15.08
2023-05-06T22:20:30.873Z,15.03
2023-05-06T22:25:34.145Z,14.96
2023-05-06T22:30:38.709Z,14.86
2023-05-06T22:35:41.901Z,14.80
2023-05-06T22:40:44.975Z,14.73
2023-05-06T22:45:49.745Z,14.66
2023-05-06T22:50:53.141Z,14.60
2023-05-06T22:55:56.164Z,14.53
2023-05-06T23:01:01.381Z,14.45
2023-05-06T23:06:06.269Z,14.38
2023-05-06T23:11:09.310Z,14.31
2023-05-06T23:16:14.685Z,14.21
2023-05-06T23:21:18.223Z,14.24
2023-05-06T23:26:21.331Z,14.35
2023-05-06T23:31:26.029Z,14.40
2023-05-06T23:36:29.174Z,14.47
2023-05-06T23:41:32.252Z,14.56
2023-05-06T23:46:36.821Z,14.60
2023-05-06T23:51:39.959Z,14.66
2023-05-06T23:56:43.006Z,14.74
